Time;durP1;ratioP1;P1;durP2;ratioP2;P2;SDS_P1;SDS_P2;PMS_P1;PMS_P2;Temp;Humidity;BMP_temperature;BMP_pressure;BME280_temperature;BME280_humidity;BME280_pressure;Samples;Min_cycle;Max_cycle;Signal;HPM_P1;HPM_P2
2023/09/30 00:02:00;;;;;;;15.20;3.55;;;;;;;11.57;100.00;101451.50;4901430;29;20440;-85
2023/09/30 00:04:34;;;;;;;19.45;4.47;;;;;;;11.51;100.00;101452.53;4917121;29;20442;-84
2023/09/30 00:07:03;;;;;;;16.83;3.88;;;;;;;11.59;100.00;101448.50;4894240;29;21107;-84
2023/09/30 00:09:36;;;;;;;17.70;3.90;;;;;;;11.51;100.00;101449.00;4916866;29;20437;-85
2023/09/30 00:12:04;;;;;;;16.90;3.87;;;;;;;11.55;100.00;101461.03;4913486;29;20448;-85
2023/09/30 00:14:37;;;;;;;20.95;3.72;;;;;;;11.50;100.00;101459.09;4901859;29;20434;-84
2023/09/30 00:17:06;;;;;;;14.93;3.80;;;;;;;11.44;100.00;101470.25;4939130;29;20440;-85
2023/09/30 00:19:40;;;;;;;15.40;3.38;;;;;;;11.52;100.00;101461.56;4919322;29;20426;-85
2023/09/30 00:22:14;;;;;;;16.45;3.72;;;;;;;11.53;100.00;101463.19;4900686;29;20415;-85
2023/09/30 00:24:42;;;;;;;16.80;3.50;;;;;;;11.55;100.00;101467.28;4925333;29;20448;-84
2023/09/30 00:27:10;;;;;;;18.98;4.38;;;;;;;11.52;100.00;101475.19;4896272;29;20454;-84
2023/09/30 00:29:43;;;;;;;18.87;3.87;;;;;;;11.38;100.00;101475.69;4905742;29;20427;-84
2023/09/30 00:32:16;;;;;;;21.60;3.80;;;;;;;11.48;100.00;101479.53;4936758;29;20444;-84
2023/09/30 00:34:53;;;;;;;16.10;3.63;;;;;;;11.36;100.00;101487.91;4902066;29;20478;-84
2023/09/30 00:37:22;;;;;;;19.27;3.75;;;;;;;11.36;100.00;101483.28;4926322;29;20441;-83
2023/09/30 00:39:55;;;;;;;17.27;3.73;;;;;;;11.38;100.00;101483.03;4897648;29;20438;-84
2023/09/30 00:42:24;;;;;;;21.35;4.25;;;;;;;11.43;100.00;101490.41;4917143;29;20927;-84
2023/09/30 00:44:57;;;;;;;17.52;3.38;;;;;;;11.40;100.00;101489.03;4907432;29;20444;-85
2023/09/30 00:47:31;;;;;;;18.05;3.63;;;;;;;11.44;100.00;101492.88;4915495;29;20420;-84
2023/09/30 00:50:08;;;;;;;19.13;3.42;;;;;;;11.35;100.00;101489.84;4907170;29;20937;-84
2023/09/30 00:52:38;;;;;;;23.02;4.20;;;;;;;11.43;100.00;101484.97;4930248;29;20806;-84
2023/09/30 00:55:08;;;;;;;18.45;3.60;;;;;;;11.38;100.00;101481.13;4927743;29;20449;-83
2023/09/30 00:57:41;;;;;;;19.63;3.60;;;;;;;11.29;100.00;101490.06;4907807;29;20882;-84
2023/09/30 01:00:16;;;;;;;19.92;3.80;;;;;;;11.25;100.00;101491.69;4897889;29;20460;-84
2023/09/30 01:02:45;;;;;;;20.10;4.60;;;;;;;11.27;100.00;101490.34;4916471;29;20778;-86
2023/09/30 01:05:19;;;;;;;16.00;3.38;;;;;;;11.26;100.00;101496.88;4909086;29;20431;-84
2023/09/30 01:07:47;;;;;;;20.08;3.97;;;;;;;11.22;100.00;101488.38;4897741;29;20431;-84
2023/09/30 01:10:21;;;;;;;20.25;3.90;;;;;;;11.25;100.00;101489.78;4922170;29;20441;-83
2023/09/30 01:12:49;;;;;;;19.80;3.55;;;;;;;11.22;100.00;101496.56;4891909;29;20434;-86
2023/09/30 01:15:22;;;;;;;19.97;4.03;;;;;;;11.22;100.00;101499.28;4928797;29;20429;-84
2023/09/30 01:17:56;;;;;;;19.17;3.53;;;;;;;11.11;100.00;101504.97;4934158;29;20794;-84
2023/09/30 01:20:31;;;;;;;15.20;3.80;;;;;;;11.10;100.00;101500.59;4911731;29;20445;-86
2023/09/30 01:23:05;;;;;;;15.43;3.72;;;;;;;11.08;100.00;101500.84;4921810;29;20433;-84
2023/09/30 01:25:39;;;;;;;17.65;4.03;;;;;;;11.15;100.00;101508.81;4911301;29;20800;-86
2023/09/30 01:28:10;;;;;;;15.88;3.45;;;;;;;11.12;100.00;101498.44;4909835;29;20548;-84
2023/09/30 01:30:38;;;;;;;18.95;3.95;;;;;;;11.05;100.00;101494.03;4916509;29;20417;-87
2023/09/30 01:33:11;;;;;;;19.67;3.83;;;;;;;11.08;100.00;101509.03;4911594;29;20475;-85
2023/09/30 01:35:44;;;;;;;15.32;3.88;;;;;;;10.99;100.00;101505.97;4921740;29;20427;-85
2023/09/30 01:38:14;;;;;;;17.98;3.67;;;;;;;11.10;100.00;101515.00;4885242;29;20438;-84
2023/09/30 01:40:47;;;;;;;17.52;3.97;;;;;;;10.98;100.00;101511.66;4891720;29;20468;-84
2023/09/30 01:43:20;;;;;;;20.42;3.90;;;;;;;11.04;100.00;101518.81;4891952;29;20426;-85
2023/09/30 01:45:54;;;;;;;20.80;3.90;;;;;;;10.98;100.00;101514.38;4895474;29;20958;-84
2023/09/30 01:48:22;;;;;;;15.80;3.67;;;;;;;10.99;100.00;101514.16;4917978;29;20434;-84
2023/09/30 01:50:55;;;;;;;16.88;4.30;;;;;;;10.98;100.00;101517.94;4897635;29;20433;-84
2023/09/30 01:53:29;;;;;;;19.80;3.77;;;;;;;10.92;100.00;101527.16;4909946;29;20546;-84
2023/09/30 01:56:03;;;;;;;22.88;3.80;;;;;;;10.78;100.00;101517.81;4908995;29;20433;-84
2023/09/30 01:58:36;;;;;;;16.75;3.40;;;;;;;10.91;100.00;101524.69;4891490;29;20549;-85
2023/09/30 02:01:10;;;;;;;22.08;3.90;;;;;;;10.86;100.00;101512.69;4898410;29;20429;-86
2023/09/30 02:03:38;;;;;;;19.02;3.40;;;;;;;10.79;100.00;101517.53;4912682;29;20409;-84
2023/09/30 02:06:06;;;;;;;14.45;3.33;;;;;;;10.85;100.00;101527.41;4905320;29;20830;-85
2023/09/30 02:08:36;;;;;;;16.67;3.70;;;;;;;10.94;100.00;101533.16;4903756;29;20437;-85
2023/09/30 02:11:05;;;;;;;17.40;3.97;;;;;;;10.95;100.00;101525.81;4906047;29;20510;-85
2023/09/30 02:13:34;;;;;;;17.65;3.72;;;;;;;11.03;100.00;101534.34;4917219;29;20425;-84
2023/09/30 02:16:12;;;;;;;19.52;3.80;;;;;;;10.95;100.00;101537.53;4905069;29;20900;-84
2023/09/30 02:18:41;;;;;;;16.63;3.60;;;;;;;10.96;100.00;101530.19;4894818;29;20434;-84
2023/09/30 02:21:14;;;;;;;17.00;3.53;;;;;;;10.92;100.00;101534.50;4910522;29;20437;-88
2023/09/30 02:23:47;;;;;;;18.00;3.67;;;;;;;11.04;100.00;101529.69;4893739;29;20435;-84
2023/09/30 02:26:21;;;;;;;15.20;3.50;;;;;;;11.01;100.00;101525.59;4921015;29;20429;-84
2023/09/30 02:28:56;;;;;;;16.92;3.38;;;;;;;10.99;100.00;101521.47;4914741;29;20442;-84
2023/09/30 02:31:29;;;;;;;20.27;3.60;;;;;;;11.00;100.00;101534.84;4915031;29;20432;-84
2023/09/30 02:34:03;;;;;;;23.13;3.70;;;;;;;11.09;100.00;101532.47;4904745;29;20433;-84
2023/09/30 02:36:37;;;;;;;18.70;3.47;;;;;;;11.02;100.00;101534.56;4888573;29;20444;-84
2023/09/30 02:39:08;;;;;;;16.38;3.65;;;;;;;10.99;100.00;101537.81;4897449;29;20896;-84
2023/09/30 02:41:37;;;;;;;16.33;3.72;;;;;;;10.98;100.00;101545.19;4901948;29;20423;-84
2023/09/30 02:44:06;;;;;;;17.42;3.78;;;;;;;10.98;100.00;101541.63;4910355;29;20431;-84
2023/09/30 02:46:39;;;;;;;15.87;3.50;;;;;;;10.84;100.00;101543.97;4895064;29;20442;-84
2023/09/30 02:49:08;;;;;;;21.80;3.92;;;;;;;10.83;100.00;101537.72;4934109;29;20461;-84
2023/09/30 02:51:41;;;;;;;21.60;3.67;;;;;;;10.82;100.00;101546.97;4906866;29;20427;-84
2023/09/30 02:54:15;;;;;;;21.52;3.90;;;;;;;10.81;100.00;101548.06;4895541;29;20848;-83
2023/09/30 02:56:48;;;;;;;17.55;3.42;;;;;;;10.79;100.00;101539.31;4898207;29;20429;-84
2023/09/30 02:59:18;;;;;;;16.92;3.42;;;;;;;10.76;100.00;101530.84;4912064;29;20424;-84
2023/09/30 03:01:51;;;;;;;20.35;3.25;;;;;;;10.77;100.00;101530.59;4898900;29;20429;-84
2023/09/30 03:04:26;;;;;;;16.77;3.83;;;;;;;10.66;100.00;101531.56;4923579;29;20449;-84
2023/09/30 03:06:56;;;;;;;18.30;3.30;;;;;;;10.61;100.00;101540.53;4915532;29;20461;-84
2023/09/30 03:09:31;;;;;;;17.75;3.88;;;;;;;10.53;100.00;101543.72;4904978;29;20484;-84
2023/09/30 03:12:05;;;;;;;17.77;3.97;;;;;;;10.54;100.00;101548.91;4911939;29;20434;-85
2023/09/30 03:14:34;;;;;;;19.47;3.60;;;;;;;10.60;100.00;101555.22;4906619;29;21043;-84
2023/09/30 03:17:11;;;;;;;16.52;3.65;;;;;;;10.52;100.00;101555.69;4913703;29;20424;-85
2023/09/30 03:19:44;;;;;;;19.52;3.78;;;;;;;10.43;100.00;101566.22;4896809;29;20430;-84
2023/09/30 03:22:17;;;;;;;20.67;4.27;;;;;;;10.47;100.00;101564.63;4916968;29;20502;-85
2023/09/30 03:24:54;;;;;;;23.63;3.83;;;;;;;10.41;100.00;101557.47;4932678;29;20428;-86
2023/09/30 03:27:27;;;;;;;19.98;4.30;;;;;;;10.41;100.00;101551.22;4907546;29;20914;-84
2023/09/30 03:29:55;;;;;;;25.13;4.10;;;;;;;10.27;100.00;101553.50;4901016;29;20464;-84
2023/09/30 03:32:24;;;;;;;20.97;4.00;;;;;;;10.32;100.00;101562.53;4906052;29;20521;-84
2023/09/30 03:34:59;;;;;;;19.17;4.30;;;;;;;10.33;100.00;101566.06;4928835;29;20426;-85
2023/09/30 03:37:32;;;;;;;18.80;3.95;;;;;;;10.35;100.00;101558.53;4914212;29;20417;-84
2023/09/30 03:40:13;;;;;;;16.70;3.87;;;;;;;10.33;100.00;101564.19;4905871;29;20529;-84
2023/09/30 03:42:43;;;;;;;19.73;3.70;;;;;;;10.43;100.00;101568.13;4915225;29;20421;-84
2023/09/30 03:45:17;;;;;;;15.32;3.60;;;;;;;10.44;100.00;101561.59;4890913;29;20419;-84
2023/09/30 03:47:45;;;;;;;18.90;3.90;;;;;;;10.38;100.00;101556.13;4894490;29;20807;-84
2023/09/30 03:50:18;;;;;;;15.15;4.28;;;;;;;10.35;100.00;101562.06;4899831;29;20432;-85
2023/09/30 03:52:47;;;;;;;19.75;3.88;;;;;;;10.29;100.00;101554.91;4927609;29;20429;-85
2023/09/30 03:55:20;;;;;;;19.13;4.03;;;;;;;10.39;100.00;101551.50;4900137;29;21007;-85
2023/09/30 03:57:53;;;;;;;23.33;4.85;;;;;;;10.29;100.00;101552.19;4911239;29;20433;-84
2023/09/30 04:00:22;;;;;;;17.85;4.32;;;;;;;10.30;100.00;101553.81;4913160;29;21140;-85
2023/09/30 04:02:53;;;;;;;21.95;4.35;;;;;;;10.33;100.00;101561.47;4928393;29;20790;-84
2023/09/30 04:05:26;;;;;;;19.27;4.73;;;;;;;10.34;100.00;101560.44;4898650;29;20479;-85
2023/09/30 04:07:59;;;;;;;18.73;4.22;;;;;;;10.32;100.00;101567.97;4911031;29;20938;-84
2023/09/30 04:10:29;;;;;;;20.52;4.88;;;;;;;10.26;100.00;101562.75;4910963;29;20433;-84
2023/09/30 04:13:03;;;;;;;23.48;4.78;;;;;;;10.36;100.00;101568.34;4913312;29;20806;-84
2023/09/30 04:15:37;;;;;;;18.70;4.63;;;;;;;10.30;100.00;101564.72;4900326;29;20504;-84
2023/09/30 04:18:11;;;;;;;21.87;4.77;;;;;;;10.23;100.00;101564.06;4916170;29;20436;-84
2023/09/30 04:20:40;;;;;;;20.65;4.80;;;;;;;10.19;100.00;101558.34;4901808;29;20439;-84
2023/09/30 04:23:13;;;;;;;19.73;4.50;;;;;;;10.21;100.00;101561.59;4925052;29;20445;-84
2023/09/30 04:25:49;;;;;;;18.65;4.32;;;;;;;10.20;100.00;101572.75;4911639;29;20446;-85
2023/09/30 04:28:24;;;;;;;18.97;4.73;;;;;;;10.22;100.00;101565.16;4921306;29;20435;-85
2023/09/30 04:30:53;;;;;;;17.73;4.95;;;;;;;10.24;100.00;101573.06;4902688;29;20437;-84
2023/09/30 04:33:26;;;;;;;21.67;4.53;;;;;;;10.23;100.00;101564.06;4924612;29;20448;-85
2023/09/30 04:35:54;;;;;;;18.40;5.00;;;;;;;10.21;100.00;101564.31;4896710;29;20439;-84
2023/09/30 04:38:22;;;;;;;21.77;5.20;;;;;;;10.18;100.00;101572.19;4928240;29;20437;-85
2023/09/30 04:40:57;;;;;;;20.67;5.00;;;;;;;10.05;100.00;101573.38;4906524;29;20558;-84
2023/09/30 04:43:29;;;;;;;20.30;5.03;;;;;;;10.13;100.00;101575.66;4891077;29;20458;-85
2023/09/30 04:45:58;;;;;;;16.50;4.88;;;;;;;10.16;100.00;101579.78;4914680;29;20422;-85
2023/09/30 04:48:26;;;;;;;18.75;5.20;;;;;;;10.11;100.00;101591.44;4901695;29;20435;-85
2023/09/30 04:50:55;;;;;;;20.10;4.80;;;;;;;10.16;100.00;101583.34;4908246;29;20488;-84
2023/09/30 04:53:29;;;;;;;26.20;5.43;;;;;;;10.14;100.00;101596.34;4925694;29;20436;-85
2023/09/30 04:55:59;;;;;;;18.08;5.05;;;;;;;10.15;100.00;101603.44;4924191;29;20433;-84
2023/09/30 04:58:29;;;;;;;22.13;5.43;;;;;;;10.14;100.00;101604.50;4888492;29;20469;-84
2023/09/30 05:01:02;;;;;;;22.00;5.68;;;;;;;10.14;100.00;101598.25;4936403;29;20427;-84
2023/09/30 05:03:30;;;;;;;21.80;5.53;;;;;;;10.13;100.00;101600.13;4893126;29;20445;-84
2023/09/30 05:05:59;;;;;;;23.42;6.55;;;;;;;10.21;100.00;101601.59;4924441;29;20439;-85
2023/09/30 05:08:28;;;;;;;21.65;6.07;;;;;;;10.14;100.00;101596.34;4897836;29;20906;-84
2023/09/30 05:10:57;;;;;;;21.48;5.72;;;;;;;10.18;100.00;101605.66;4913501;29;20417;-84
2023/09/30 05:13:33;;;;;;;25.37;5.57;;;;;;;10.19;100.00;101609.19;4902763;29;20456;-85
2023/09/30 05:16:03;;;;;;;20.85;5.88;;;;;;;10.30;100.00;101602.81;4914335;29;20417;-84
2023/09/30 05:18:31;;;;;;;20.27;5.63;;;;;;;10.19;100.00;101601.00;4912568;29;20416;-86
2023/09/30 05:20:59;;;;;;;19.48;5.05;;;;;;;10.28;100.00;101604.13;4927820;29;20442;-85
2023/09/30 05:23:34;;;;;;;24.83;5.85;;;;;;;10.37;100.00;101587.13;4905380;29;20433;-85
2023/09/30 05:26:02;;;;;;;23.25;5.85;;;;;;;10.30;100.00;101593.78;4911768;29;20476;-84
2023/09/30 05:28:37;;;;;;;24.37;5.83;;;;;;;10.31;100.00;101596.25;4898819;29;20433;-86
2023/09/30 05:31:10;;;;;;;23.83;5.50;;;;;;;10.28;100.00;101609.56;4925297;29;20453;-85
2023/09/30 05:33:43;;;;;;;23.67;5.32;;;;;;;10.30;100.00;101616.41;4887280;29;20788;-85
2023/09/30 05:36:17;;;;;;;22.95;5.55;;;;;;;10.31;100.00;101609.84;4919933;29;20437;-86
2023/09/30 05:38:50;;;;;;;19.05;5.00;;;;;;;10.35;100.00;101623.81;4902702;29;20937;-84
2023/09/30 05:41:23;;;;;;;20.27;4.93;;;;;;;10.46;100.00;101617.41;4911920;29;20421;-85
2023/09/30 05:43:54;;;;;;;24.08;5.75;;;;;;;10.40;100.00;101606.72;4926768;29;20444;-85
2023/09/30 05:46:28;;;;;;;25.88;5.55;;;;;;;10.43;100.00;101619.84;4920898;29;20433;-84
2023/09/30 05:48:56;;;;;;;22.83;5.15;;;;;;;10.41;100.00;101620.06;4912183;29;20915;-85
2023/09/30 05:51:24;;;;;;;19.02;5.30;;;;;;;10.34;100.00;101616.69;4890273;29;20443;-85
2023/09/30 05:53:57;;;;;;;22.42;5.50;;;;;;;10.42;100.00;101624.44;4916228;29;20433;-85
2023/09/30 05:56:27;;;;;;;21.00;5.43;;;;;;;10.33;100.00;101631.38;4918875;29;20886;-84
2023/09/30 05:58:56;;;;;;;17.40;4.73;;;;;;;10.32;100.00;101633.28;4897624;29;20524;-85
2023/09/30 06:01:24;;;;;;;20.35;5.03;;;;;;;10.31;100.00;101626.19;4913494;29;20770;-85
2023/09/30 06:03:58;;;;;;;19.60;5.70;;;;;;;10.35;100.00;101631.97;4912899;29;20422;-85
2023/09/30 06:06:31;;;;;;;21.75;5.50;;;;;;;10.31;100.00;101628.91;4915994;29;20456;-85
2023/09/30 06:08:59;;;;;;;19.40;5.05;;;;;;;10.38;100.00;101634.19;4927239;29;20436;-85
2023/09/30 06:11:28;;;;;;;23.07;5.53;;;;;;;10.40;100.00;101634.78;4898948;29;20432;-85
2023/09/30 06:14:04;;;;;;;21.10;4.90;;;;;;;10.46;100.00;101646.53;4901400;29;20432;-85
2023/09/30 06:16:34;;;;;;;22.25;4.97;;;;;;;10.49;100.00;101649.53;4912944;29;20415;-85
2023/09/30 06:19:07;;;;;;;21.08;5.20;;;;;;;10.49;100.00;101663.16;4920134;29;20453;-84
2023/09/30 06:21:42;;;;;;;17.80;4.97;;;;;;;10.51;100.00;101654.75;4910903;29;20979;-85
2023/09/30 06:24:10;;;;;;;19.73;5.43;;;;;;;10.57;100.00;101655.63;4912309;29;20436;-86
2023/09/30 06:26:39;;;;;;;16.23;4.97;;;;;;;10.58;100.00;101663.53;4909894;29;20417;-84
2023/09/30 06:29:08;;;;;;;21.80;4.88;;;;;;;10.59;100.00;101659.72;4926386;29;20448;-85
2023/09/30 06:31:41;;;;;;;24.15;4.65;;;;;;;10.60;100.00;101671.44;4923584;29;20440;-83
2023/09/30 06:34:15;;;;;;;21.25;5.13;;;;;;;10.71;100.00;101663.13;4910032;29;20965;-84
2023/09/30 06:36:43;;;;;;;17.63;4.95;;;;;;;10.72;100.00;101674.84;4899243;29;21060;-84
2023/09/30 06:39:17;;;;;;;17.80;4.80;;;;;;;10.77;100.00;101682.22;4909570;29;20431;-84
2023/09/30 06:41:50;;;;;;;21.27;4.70;;;;;;;10.84;100.00;101674.69;4910755;29;20441;-84
2023/09/30 06:44:20;;;;;;;20.80;5.20;;;;;;;10.74;100.00;101677.31;4914909;29;20413;-84
2023/09/30 06:46:50;;;;;;;17.20;4.70;;;;;;;10.87;100.00;101682.34;4912094;29;20413;-84
2023/09/30 06:49:18;;;;;;;16.25;4.97;;;;;;;10.91;100.00;101678.03;4925181;29;20433;-87
2023/09/30 06:51:51;;;;;;;23.43;4.97;;;;;;;10.97;100.00;101687.09;4896923;29;20530;-84
2023/09/30 06:54:20;;;;;;;20.10;4.90;;;;;;;10.97;100.00;101693.34;4914371;29;20427;-84
2023/09/30 06:56:53;;;;;;;18.42;4.78;;;;;;;10.92;100.00;101695.19;4910914;29;20444;-84
2023/09/30 06:59:28;;;;;;;18.60;4.68;;;;;;;10.97;100.00;101693.34;4907160;29;20446;-84
2023/09/30 07:01:56;;;;;;;22.70;4.82;;;;;;;11.04;100.00;101696.66;4920232;29;20440;-84
2023/09/30 07:04:26;;;;;;;21.42;4.53;;;;;;;11.11;100.00;101698.38;4907945;29;20902;-83
2023/09/30 07:06:54;;;;;;;19.52;4.80;;;;;;;11.13;100.00;101704.38;4895979;29;20443;-84
2023/09/30 07:09:27;;;;;;;20.08;4.70;;;;;;;11.24;100.00;101711.56;4890430;29;20431;-84
2023/09/30 07:12:01;;;;;;;18.33;5.10;;;;;;;11.31;100.00;101716.78;4911421;29;20453;-83
2023/09/30 07:14:31;;;;;;;23.27;4.90;;;;;;;11.40;100.00;101704.34;4908667;29;20429;-83
2023/09/30 07:17:04;;;;;;;21.80;4.97;;;;;;;11.44;100.00;101715.56;4921642;29;20442;-84
2023/09/30 07:19:38;;;;;;;21.63;4.93;;;;;;;11.49;100.00;101713.69;4922535;29;20514;-84
2023/09/30 07:22:11;;;;;;;18.00;4.80;;;;;;;11.56;100.00;101708.84;4924210;29;20503;-84
2023/09/30 07:24:39;;;;;;;16.73;5.32;;;;;;;11.55;100.00;101711.81;4906966;29;20420;-85
2023/09/30 07:27:13;;;;;;;24.10;5.00;;;;;;;11.78;100.00;101716.09;4919778;29;20439;-83
2023/09/30 07:29:48;;;;;;;18.20;4.88;;;;;;;11.82;100.00;101711.75;4895457;29;20791;-84
2023/09/30 07:32:17;;;;;;;18.30;4.82;;;;;;;11.84;100.00;101719.66;4922223;29;20433;-84
2023/09/30 07:34:45;;;;;;;18.75;4.55;;;;;;;11.94;100.00;101719.75;4923322;29;20433;-84
2023/09/30 07:37:14;;;;;;;19.42;4.55;;;;;;;11.94;100.00;101724.34;4893607;29;20437;-85
2023/09/30 07:39:42;;;;;;;19.77;4.78;;;;;;;11.92;100.00;101724.63;4924435;29;20444;-84
2023/09/30 07:42:11;;;;;;;17.08;4.40;;;;;;;11.94;100.00;101727.09;4896037;29;20445;-83
2023/09/30 07:44:39;;;;;;;19.93;4.90;;;;;;;12.02;100.00;101726.63;4923931;29;20523;-85
2023/09/30 07:47:14;;;;;;;18.88;4.63;;;;;;;12.09;100.00;101729.94;4893861;29;20432;-83
2023/09/30 07:49:48;;;;;;;20.00;4.80;;;;;;;12.04;100.00;101735.34;4895896;29;20445;-86
2023/09/30 07:52:21;;;;;;;19.02;4.65;;;;;;;12.18;100.00;101741.16;4918749;29;20443;-84
2023/09/30 07:54:54;;;;;;;20.10;4.80;;;;;;;12.07;100.00;101743.84;4919903;29;20429;-86
2023/09/30 07:57:28;;;;;;;18.45;4.53;;;;;;;12.21;100.00;101743.38;4926119;29;20916;-85
2023/09/30 07:59:56;;;;;;;20.77;4.47;;;;;;;12.26;100.00;101740.66;4913464;29;20433;-84
2023/09/30 08:02:32;;;;;;;17.83;4.47;;;;;;;12.32;100.00;101725.97;4926105;29;20445;-85
2023/09/30 08:05:00;;;;;;;13.32;4.18;;;;;;;12.40;100.00;101728.19;4927413;29;20433;-88
2023/09/30 08:07:29;;;;;;;18.40;4.32;;;;;;;12.39;100.00;101729.25;4906287;29;20963;-85
2023/09/30 08:10:04;;;;;;;18.40;4.22;;;;;;;12.59;100.00;101738.63;4898091;29;20433;-86
2023/09/30 08:12:32;;;;;;;16.25;3.92;;;;;;;12.50;100.00;101734.78;4925653;29;20433;-87
2023/09/30 08:15:07;;;;;;;16.52;3.97;;;;;;;12.57;100.00;101743.53;4921757;29;20441;-83
2023/09/30 08:17:42;;;;;;;24.88;8.75;;;;;;;12.64;100.00;101741.38;4887854;29;20437;-83
2023/09/30 08:20:11;;;;;;;20.33;4.43;;;;;;;12.64;100.00;101744.13;4895184;29;20442;-82
2023/09/30 08:22:44;;;;;;;13.07;3.58;;;;;;;12.64;100.00;101744.13;4891281;29;20437;-81
2023/09/30 08:25:12;;;;;;;16.17;3.97;;;;;;;12.67;100.00;101745.50;4926798;29;20916;-82
2023/09/30 08:27:41;;;;;;;15.27;4.13;;;;;;;12.89;100.00;101746.09;4904586;29;20438;-82
2023/09/30 08:30:14;;;;;;;17.23;4.10;;;;;;;12.92;100.00;101748.28;4918058;29;20450;-82
2023/09/30 08:32:49;;;;;;;16.85;3.97;;;;;;;12.98;100.00;101751.88;4920823;29;20949;-82
2023/09/30 08:35:22;;;;;;;15.98;4.03;;;;;;;13.17;100.00;101754.06;4918972;29;20454;-82
2023/09/30 08:37:50;;;;;;;16.75;5.22;;;;;;;13.15;100.00;101757.09;4917511;29;20912;-82
2023/09/30 08:40:23;;;;;;;16.92;3.88;;;;;;;13.10;100.00;101754.34;4905744;29;20460;-83
2023/09/30 08:42:53;;;;;;;16.73;3.85;;;;;;;13.19;100.00;101768.31;4924210;29;20453;-85
2023/09/30 08:45:29;;;;;;;16.63;3.63;;;;;;;13.27;100.00;101773.22;4896400;29;20904;-83
2023/09/30 08:48:05;;;;;;;18.05;3.83;;;;;;;13.32;100.00;101772.41;4888413;29;20439;-83
2023/09/30 08:50:42;;;;;;;18.10;3.42;;;;;;;13.37;100.00;101770.53;4922422;29;20452;-84
2023/09/30 08:53:11;;;;;;;15.55;3.72;;;;;;;13.39;100.00;101767.53;4906387;29;20441;-85
2023/09/30 08:55:47;;;;;;;19.00;4.15;;;;;;;13.51;100.00;101776.28;4891861;29;20445;-83
2023/09/30 08:58:16;;;;;;;16.70;3.42;;;;;;;13.50;100.00;101773.84;4893883;29;20449;-84
2023/09/30 09:00:50;;;;;;;16.85;3.40;;;;;;;13.48;100.00;101776.00;4912426;29;20429;-87
2023/09/30 09:03:29;;;;;;;18.17;3.50;;;;;;;13.63;100.00;101770.56;4911836;29;20918;-83
2023/09/30 09:06:02;;;;;;;17.70;3.53;;;;;;;13.70;100.00;101775.72;4912054;29;20445;-82
2023/09/30 09:08:30;;;;;;;17.20;4.07;;;;;;;13.87;100.00;101772.72;4918030;29;20827;-87
2023/09/30 09:11:05;;;;;;;15.00;3.20;;;;;;;13.89;100.00;101784.22;4925461;29;20438;-84
2023/09/30 09:13:49;;;;;;;13.65;2.95;;;;;;;13.96;100.00;101784.75;4907997;29;20941;-83
2023/09/30 09:16:19;;;;;;;15.80;3.47;;;;;;;13.92;100.00;101783.66;4900947;29;20437;-84
2023/09/30 09:18:48;;;;;;;15.80;3.10;;;;;;;14.07;100.00;101788.28;4899013;29;20448;-85
2023/09/30 09:21:19;;;;;;;15.07;3.40;;;;;;;13.94;100.00;101790.50;4909065;29;20427;-82
2023/09/30 09:23:49;;;;;;;13.15;2.90;;;;;;;13.94;100.00;101797.91;4929307;29;20435;-84
2023/09/30 09:26:25;;;;;;;17.25;3.20;;;;;;;14.06;100.00;101803.91;4908307;29;20434;-83
2023/09/30 09:28:57;;;;;;;14.15;2.92;;;;;;;14.20;100.00;101806.88;4934087;29;20432;-84
2023/09/30 09:31:27;;;;;;;13.25;2.92;;;;;;;14.14;100.00;101804.44;4894795;29;20462;-83
2023/09/30 09:34:03;;;;;;;17.43;3.30;;;;;;;14.21;100.00;101810.44;4936693;29;20924;-83
2023/09/30 09:36:40;;;;;;;15.85;3.10;;;;;;;14.17;100.00;101804.72;4911044;29;20433;-84
2023/09/30 09:39:08;;;;;;;13.30;2.78;;;;;;;14.32;100.00;101800.28;4897870;29;20426;-84
2023/09/30 09:41:50;;;;;;;14.02;2.78;;;;;;;14.41;100.00;101798.63;4897073;29;20448;-85
2023/09/30 09:44:21;;;;;;;16.70;3.08;;;;;;;14.56;100.00;101803.25;4911614;29;20438;-86
2023/09/30 09:46:54;;;;;;;13.40;2.83;;;;;;;14.66;100.00;101807.91;4914001;29;20515;-85
2023/09/30 09:49:25;;;;;;;15.02;2.95;;;;;;;14.54;100.00;101803.53;4909761;29;20426;-84
2023/09/30 09:51:54;;;;;;;13.00;2.90;;;;;;;14.74;100.00;101804.56;4927818;29;20464;-84
2023/09/30 09:54:23;;;;;;;16.50;3.00;;;;;;;14.57;100.00;101804.88;4912016;29;20417;-84
2023/09/30 09:56:59;;;;;;;16.15;2.40;;;;;;;14.61;100.00;101804.03;4915464;29;20429;-84
2023/09/30 09:59:29;;;;;;;14.85;2.65;;;;;;;14.73;100.00;101800.19;4907903;29;20456;-84
2023/09/30 10:02:06;;;;;;;15.52;2.55;;;;;;;14.69;100.00;101802.66;4889355;29;20831;-83
2023/09/30 10:04:42;;;;;;;14.67;2.73;;;;;;;14.83;100.00;101802.91;4911418;29;20778;-84
2023/09/30 10:07:14;;;;;;;12.07;2.53;;;;;;;14.85;100.00;101797.13;4913767;29;20429;-85
2023/09/30 10:09:47;;;;;;;13.40;2.60;;;;;;;14.90;100.00;101806.16;4907712;29;20436;-84
2023/09/30 10:12:21;;;;;;;13.23;2.67;;;;;;;14.94;100.00;101792.69;4905876;29;20442;-83
2023/09/30 10:14:49;;;;;;;16.58;2.67;;;;;;;15.03;100.00;101795.66;4921844;29;20432;-84
2023/09/30 10:17:58;;;;;;;16.40;2.80;;;;;;;14.97;100.00;101805.84;4911536;29;20437;-83
2023/09/30 10:20:30;;;;;;;10.70;2.38;;;;;;;15.08;100.00;101801.09;4922105;29;20947;-84
2023/09/30 10:23:21;;;;;;;15.70;2.55;;;;;;;15.28;100.00;101794.69;4919226;29;20445;-85
2023/09/30 10:25:51;;;;;;;13.73;2.55;;;;;;;15.21;100.00;101795.00;4919731;29;20433;-86
2023/09/30 10:28:37;;;;;;;16.20;2.50;;;;;;;15.24;100.00;101794.44;4898470;29;20437;-84
2023/09/30 10:31:10;;;;;;;12.70;2.30;;;;;;;15.48;100.00;101796.47;4906124;29;20449;-86
2023/09/30 10:34:21;;;;;;;17.83;2.72;;;;;;;15.50;100.00;101807.97;4915778;29;20440;-84
2023/09/30 10:36:55;;;;;;;14.53;2.57;;;;;;;15.84;100.00;101809.94;4905301;29;20462;-84
2023/09/30 10:39:56;;;;;;;20.05;6.03;;;;;;;15.85;100.00;101813.50;4908406;29;20788;-86
2023/09/30 10:42:49;;;;;;;14.30;2.40;;;;;;;15.85;100.00;101816.25;4897066;29;20437;-85
2023/09/30 10:45:46;;;;;;;13.32;2.88;;;;;;;16.06;100.00;101812.22;4927836;29;20433;-86
2023/09/30 10:48:36;;;;;;;11.75;2.60;;;;;;;15.89;100.00;101818.13;4893254;29;20451;-86
2023/09/30 10:51:21;;;;;;;13.98;2.35;;;;;;;15.78;100.00;101814.63;4880442;29;20431;-85
2023/09/30 10:53:56;;;;;;;9.80;1.97;;;;;;;15.57;100.00;101819.44;4900607;29;20453;-85
2023/09/30 10:56:34;;;;;;;9.00;2.13;;;;;;;15.58;100.00;101820.28;4907189;29;20443;-84
2023/09/30 10:59:02;;;;;;;11.25;2.28;;;;;;;15.56;100.00;101820.53;4909682;29;21216;-85
2023/09/30 11:01:34;;;;;;;15.20;2.27;;;;;;;15.58;100.00;101828.50;4898029;29;20441;-85
2023/09/30 11:04:05;;;;;;;13.05;2.50;;;;;;;15.57;100.00;101826.84;4921804;29;20437;-84
2023/09/30 11:06:40;;;;;;;9.50;1.80;;;;;;;15.76;100.00;101825.06;4888845;29;20782;-85
2023/09/30 11:09:13;;;;;;;11.13;2.00;;;;;;;15.84;100.00;101811.84;4922379;29;20652;-87
2023/09/30 11:11:49;;;;;;;15.95;3.20;;;;;;;15.92;100.00;101813.97;4928241;29;20461;-86
2023/09/30 11:14:23;;;;;;;12.50;2.47;;;;;;;15.94;100.00;101820.81;4897078;29;20437;-83
2023/09/30 11:16:53;;;;;;;11.13;1.92;;;;;;;15.94;100.00;101826.31;4908968;29;20436;-85
2023/09/30 11:19:22;;;;;;;10.82;1.98;;;;;;;16.00;100.00;101824.34;4895030;29;20917;-83
2023/09/30 11:21:58;;;;;;;10.30;2.20;;;;;;;15.88;100.00;101818.41;4905428;29;20441;-84
2023/09/30 11:24:29;;;;;;;12.30;1.95;;;;;;;16.01;100.00;101809.50;4933324;29;20454;-86
2023/09/30 11:27:01;;;;;;;9.82;1.90;;;;;;;16.13;100.00;101822.84;4907742;29;20444;-85
2023/09/30 11:29:30;;;;;;;10.52;2.15;;;;;;;16.32;100.00;101818.25;4923334;29;20922;-86
2023/09/30 11:32:04;;;;;;;14.07;2.40;;;;;;;16.21;100.00;101815.91;4927239;29;20437;-86
2023/09/30 11:34:38;;;;;;;11.40;2.17;;;;;;;15.99;100.00;101808.97;4900718;29;20468;-85